Vauxhall, New Jersey
Current Conditions -  °F | °C
As of 8:51 AM on Friday 28 Nov 2014 (Local Time) from KEWR Reporting Station
Scattered Clouds Scattered Clouds  
Wind Chill: 24°   Ceiling: Unl
Heat Index: 34°   Visibility: 10mi
Dew Point: 22°   Wind: 15mph
Humidity: 61%   Direction: 320°NW
Pressure: 30.19"   Gusts: 20mph
Location:  40.73°N, 74.28°W
Report Text: KEWR 281351Z 32013G17KT 10SM FEW040 SCT120 01/M06 A3019 RMK AO2 SLP223 T00111056 $
Loading
Personal Weather Stations






























Interactive Weather Map New forecast layout! Learn more

10-Day Weather Forecast

Advertisements
Track Severe Weather on mobile